Time;durP1;ratioP1;P1;durP2;ratioP2;P2;SDS_P1;SDS_P2;PMS_P1;PMS_P2;Temp;Humidity;BMP_temperature;BMP_pressure;BME280_temperature;BME280_humidity;BME280_pressure;Samples;Min_cycle;Max_cycle;Signal;HPM_P1;HPM_P2
2022/11/16 00:01:44;;;;;;;12.43;9.70;;;10.50;99.90;;;;;;4990768;28;20676;-87
2022/11/16 00:04:11;;;;;;;11.97;10.40;;;10.50;99.90;;;;;;4988180;28;20684;-87
2022/11/16 00:06:39;;;;;;;11.90;10.80;;;10.50;99.90;;;;;;4993883;28;20671;-88
2022/11/16 00:09:25;;;;;;;12.60;11.43;;;10.30;99.90;;;;;;4986870;28;20684;-88
2022/11/16 00:12:00;;;;;;;13.00;11.63;;;10.30;99.90;;;;;;5014383;28;20715;-88
2022/11/16 00:14:30;;;;;;;12.07;11.03;;;10.60;99.90;;;;;;5017067;28;20613;-88
2022/11/16 00:16:57;;;;;;;12.60;11.17;;;10.60;99.90;;;;;;5010496;28;20649;-88
2022/11/16 00:19:25;;;;;;;13.63;12.43;;;10.30;99.90;;;;;;4995938;28;20723;-88
2022/11/16 00:21:52;;;;;;;12.60;11.30;;;10.10;99.90;;;;;;4982161;28;20679;-88
2022/11/16 00:24:21;;;;;;;12.20;10.80;;;10.70;99.90;;;;;;4979368;28;20634;-87
2022/11/16 00:26:49;;;;;;;11.00;10.07;;;10.00;99.90;;;;;;4979278;28;20752;-87
2022/11/16 00:29:21;;;;;;;9.50;8.63;;;10.00;99.90;;;;;;4975128;28;20657;-87
2022/11/16 00:31:49;;;;;;;8.73;7.97;;;10.50;99.90;;;;;;4984213;28;20980;-87
2022/11/16 00:34:16;;;;;;;9.00;8.10;;;10.10;99.90;;;;;;4987213;28;20636;-87
2022/11/16 00:36:43;;;;;;;8.20;7.33;;;10.20;99.90;;;;;;4983492;28;20640;-87
2022/11/16 00:39:11;;;;;;;9.43;8.23;;;10.20;99.90;;;;;;4979244;28;20625;-87
2022/11/16 00:41:38;;;;;;;8.77;7.90;;;10.90;99.90;;;;;;4986233;28;20668;-89
2022/11/16 00:44:05;;;;;;;8.37;7.57;;;10.30;99.90;;;;;;4995506;28;20997;-88
2022/11/16 00:46:33;;;;;;;9.50;8.70;;;10.70;99.90;;;;;;4977938;28;21178;-87
2022/11/16 00:49:00;;;;;;;10.30;8.27;;;10.40;99.90;;;;;;4979800;28;20683;-88
2022/11/16 00:51:27;;;;;;;12.07;9.17;;;10.20;99.90;;;;;;4983499;28;21306;-87
2022/11/16 00:53:54;;;;;;;8.73;7.93;;;10.70;99.90;;;;;;4984483;28;20628;-86
2022/11/16 00:56:21;;;;;;;9.60;8.80;;;10.70;99.90;;;;;;4973648;28;21054;-87
2022/11/16 00:58:48;;;;;;;10.00;8.80;;;10.30;99.90;;;;;;4985951;28;20639;-87
2022/11/16 01:01:15;;;;;;;8.90;8.10;;;10.20;99.90;;;;;;4977962;28;20673;-88
2022/11/16 01:03:44;;;;;;;9.00;8.27;;;10.60;99.90;;;;;;4975888;28;20640;-87
2022/11/16 01:06:13;;;;;;;8.67;7.87;;;10.40;99.90;;;;;;4990356;28;20664;-89
2022/11/16 01:08:41;;;;;;;9.23;8.37;;;10.40;99.90;;;;;;4982997;28;20644;-88
2022/11/16 01:13:55;;;;;;;8.80;8.00;;;9.90;99.90;;;;;;4990057;28;20604;-88
2022/11/16 01:16:23;;;;;;;8.80;7.13;;;10.40;99.90;;;;;;4980641;28;20625;-88
2022/11/16 01:18:53;;;;;;;9.27;6.67;;;10.40;99.90;;;;;;4979506;28;20990;-88
2022/11/16 01:21:21;;;;;;;7.60;7.00;;;10.40;99.90;;;;;;4985626;28;21509;-88
2022/11/16 01:23:50;;;;;;;6.80;6.20;;;10.20;99.90;;;;;;4980681;28;20974;-88
2022/11/16 01:26:17;;;;;;;7.60;6.63;;;10.10;99.90;;;;;;4983881;28;20989;-88
2022/11/16 01:28:44;;;;;;;7.80;7.20;;;10.10;99.90;;;;;;4987126;28;21181;-88
2022/11/16 01:31:11;;;;;;;7.73;7.03;;;10.20;99.90;;;;;;4977473;28;20653;-88
2022/11/16 01:33:39;;;;;;;6.63;6.10;;;10.20;99.90;;;;;;4984760;28;20642;-88
2022/11/16 01:36:13;;;;;;;7.63;6.80;;;10.40;99.90;;;;;;4983271;28;21174;-88
2022/11/16 01:38:41;;;;;;;7.23;6.53;;;10.50;99.90;;;;;;4982347;28;20632;-87
2022/11/16 01:41:08;;;;;;;7.20;6.60;;;9.80;99.90;;;;;;5011087;28;20676;-88
2022/11/16 01:43:54;;;;;;;9.23;8.50;;;9.80;99.90;;;;;;5000741;28;20635;-87
2022/11/16 01:46:21;;;;;;;9.13;8.23;;;10.30;99.90;;;;;;5004527;28;20640;-88
2022/11/16 01:48:51;;;;;;;11.00;10.10;;;9.70;99.90;;;;;;4997287;28;20658;-88
2022/11/16 01:51:20;;;;;;;10.90;10.10;;;9.60;99.90;;;;;;4985856;28;20659;-88
2022/11/16 01:53:47;;;;;;;11.47;10.47;;;9.80;99.90;;;;;;4981983;28;20631;-87
2022/11/16 01:56:14;;;;;;;9.87;9.07;;;9.80;99.90;;;;;;4990837;28;20643;-88
2022/11/16 01:58:41;;;;;;;11.50;10.53;;;10.00;99.90;;;;;;4985010;28;20643;-87
2022/11/16 02:01:08;;;;;;;10.90;10.10;;;10.10;99.90;;;;;;4991857;28;20699;-88
2022/11/16 02:03:37;;;;;;;12.63;11.63;;;9.80;99.90;;;;;;4990297;28;20627;-88
2022/11/16 02:06:28;;;;;;;12.27;11.27;;;10.00;99.90;;;;;;4978372;28;20625;-87
2022/11/16 02:12:27;;;;;;;12.93;11.77;;;10.00;99.90;;;;;;4961449;28;20627;-88
2022/11/16 02:15:07;;;;;;;12.70;11.60;;;10.10;99.90;;;;;;4986864;28;20629;-88
2022/11/16 02:17:41;;;;;;;10.73;9.93;;;9.80;99.90;;;;;;4981061;28;20613;-88
2022/11/16 02:20:40;;;;;;;11.70;10.80;;;9.60;99.90;;;;;;4982129;28;21280;-88
2022/11/16 02:23:38;;;;;;;12.90;11.90;;;10.00;99.90;;;;;;4991087;28;20620;-88
2022/11/16 02:26:22;;;;;;;11.37;10.50;;;9.80;99.90;;;;;;4977337;28;21238;-88
2022/11/16 02:29:01;;;;;;;11.83;10.73;;;9.80;99.90;;;;;;4981213;28;20644;-88
2022/11/16 02:31:33;;;;;;;11.77;10.53;;;10.00;99.90;;;;;;4983714;28;20663;-88
2022/11/16 02:34:01;;;;;;;12.20;11.20;;;9.60;99.90;;;;;;4979577;28;20639;-88
2022/11/16 02:36:28;;;;;;;12.93;11.73;;;10.10;99.90;;;;;;4993781;28;20634;-87
2022/11/16 02:38:59;;;;;;;12.77;11.47;;;9.70;99.90;;;;;;4984470;28;20631;-88
2022/11/16 02:41:35;;;;;;;11.70;10.70;;;9.70;99.90;;;;;;4995227;28;21197;-88
2022/11/16 02:44:08;;;;;;;11.63;10.77;;;9.60;99.90;;;;;;4989452;28;20683;-88
2022/11/16 02:46:38;;;;;;;13.00;11.70;;;9.90;99.90;;;;;;4985838;28;20626;-88
2022/11/16 02:49:10;;;;;;;12.57;11.60;;;9.90;99.90;;;;;;4988313;28;20632;-88
2022/11/16 02:51:39;;;;;;;13.17;11.97;;;9.40;99.90;;;;;;4987668;28;20625;-88
2022/11/16 02:54:11;;;;;;;14.00;12.70;;;9.60;99.90;;;;;;4987761;28;20639;-88
2022/11/16 02:56:44;;;;;;;13.43;12.43;;;9.50;99.90;;;;;;4980890;28;21307;-88
2022/11/16 02:59:14;;;;;;;13.17;11.97;;;9.80;99.90;;;;;;4984743;28;20663;-88
2022/11/16 03:01:46;;;;;;;14.10;12.80;;;9.30;99.90;;;;;;4989310;28;20669;-87
2022/11/16 03:04:19;;;;;;;13.77;12.67;;;9.70;99.90;;;;;;4977738;28;20624;-88
2022/11/16 03:06:48;;;;;;;14.67;13.07;;;9.30;99.90;;;;;;4989412;28;20635;-88
2022/11/16 03:09:21;;;;;;;14.70;13.50;;;9.30;99.90;;;;;;4987035;28;20655;-88
2022/11/16 03:11:59;;;;;;;13.50;12.50;;;9.70;99.90;;;;;;4991039;28;20608;-88
2022/11/16 03:14:33;;;;;;;14.50;13.20;;;9.70;99.90;;;;;;4981659;28;20633;-87
2022/11/16 03:17:02;;;;;;;14.33;13.23;;;9.80;99.90;;;;;;4984914;28;20628;-87
2022/11/16 03:19:34;;;;;;;14.00;12.60;;;9.50;99.90;;;;;;4980481;28;20656;-88
2022/11/16 03:22:06;;;;;;;14.50;13.33;;;9.60;99.90;;;;;;4987130;28;20668;-88
2022/11/16 03:24:33;;;;;;;13.83;12.73;;;9.60;99.90;;;;;;4989860;28;20632;-90
2022/11/16 03:27:05;;;;;;;14.90;13.70;;;9.30;99.90;;;;;;4996200;28;20633;-88
2022/11/16 03:29:40;;;;;;;14.03;12.93;;;9.20;99.90;;;;;;4990836;28;20649;-88
2022/11/16 03:32:13;;;;;;;14.03;12.93;;;9.70;99.90;;;;;;4987479;28;20723;-88
2022/11/16 03:34:46;;;;;;;14.03;12.93;;;9.50;99.90;;;;;;4996292;28;21297;-88
2022/11/16 03:37:13;;;;;;;15.30;13.70;;;9.80;99.90;;;;;;4992975;28;21210;-89
2022/11/16 03:39:41;;;;;;;15.17;13.77;;;9.70;99.90;;;;;;4988275;28;21050;-87
2022/11/16 03:42:13;;;;;;;14.90;13.60;;;9.80;99.90;;;;;;4987261;28;20765;-89
2022/11/16 03:44:54;;;;;;;14.30;13.10;;;9.80;99.90;;;;;;4988141;28;20626;-89
2022/11/16 03:47:21;;;;;;;15.17;13.70;;;9.40;99.90;;;;;;4991078;28;20623;-88
2022/11/16 03:49:48;;;;;;;15.10;13.80;;;9.90;99.90;;;;;;5007985;28;20673;-89
2022/11/16 03:52:17;;;;;;;14.20;12.93;;;9.70;99.90;;;;;;5003112;28;20701;-88
2022/11/16 03:54:43;;;;;;;16.50;15.10;;;9.40;99.90;;;;;;5004960;28;20794;-88
2022/11/16 03:57:14;;;;;;;14.23;13.00;;;9.60;99.90;;;;;;5010694;28;20715;-88
2022/11/16 03:59:41;;;;;;;15.10;13.90;;;9.80;99.90;;;;;;4995994;28;20660;-88
2022/11/16 04:02:10;;;;;;;15.93;14.63;;;9.90;99.90;;;;;;4990185;28;20675;-88
2022/11/16 04:24:12;;;;;;;12.87;11.97;;;9.70;99.90;;;;;;4986043;28;21045;-88
2022/11/16 04:29:28;;;;;;;12.37;11.17;;;9.60;99.90;;;;;;4983954;28;20713;-89
2022/11/16 04:40:11;;;;;;;10.90;9.90;;;10.00;99.90;;;;;;4974893;28;20702;-90
2022/11/16 04:42:38;;;;;;;12.17;11.07;;;10.00;99.90;;;;;;4979535;28;21040;-90
2022/11/16 04:47:52;;;;;;;9.30;8.60;;;10.10;99.90;;;;;;4968403;28;20752;-89
2022/11/16 04:50:22;;;;;;;10.03;9.13;;;10.20;99.90;;;;;;4970614;28;20979;-90
2022/11/16 04:52:50;;;;;;;12.00;11.00;;;10.50;99.90;;;;;;4977692;28;20641;-89
2022/11/16 04:55:17;;;;;;;10.70;9.80;;;9.90;99.90;;;;;;4981822;28;20620;-90
2022/11/16 04:57:43;;;;;;;10.10;9.20;;;10.30;99.90;;;;;;4968003;28;20648;-89
2022/11/16 05:00:11;;;;;;;10.10;9.33;;;9.90;99.90;;;;;;4979862;28;20773;-90
2022/11/16 05:02:38;;;;;;;9.20;8.23;;;10.60;99.90;;;;;;4979928;28;20680;-90
2022/11/16 05:05:08;;;;;;;10.73;9.73;;;10.00;99.90;;;;;;4975492;28;20634;-89
2022/11/16 05:07:36;;;;;;;9.70;8.70;;;10.40;99.90;;;;;;4983360;28;20629;-88
2022/11/16 05:10:07;;;;;;;8.90;8.17;;;10.10;99.90;;;;;;4993290;28;21628;-89
2022/11/16 05:12:34;;;;;;;9.30;8.17;;;10.30;99.90;;;;;;4981323;28;20629;-90
2022/11/16 05:15:04;;;;;;;8.27;7.57;;;10.10;99.90;;;;;;4980285;28;20632;-90
2022/11/16 05:17:31;;;;;;;9.73;8.43;;;10.30;99.90;;;;;;4977234;28;20629;-89
2022/11/16 05:22:44;;;;;;;9.03;8.13;;;10.30;99.90;;;;;;4984429;28;21143;-90
2022/11/16 05:25:12;;;;;;;9.00;8.30;;;9.90;99.90;;;;;;4983006;28;21447;-89
2022/11/16 05:27:39;;;;;;;7.70;6.90;;;10.30;99.90;;;;;;4985333;28;20648;-90
2022/11/16 05:30:07;;;;;;;6.30;5.60;;;10.10;99.90;;;;;;4995055;28;21291;-89
2022/11/16 05:32:34;;;;;;;8.90;7.87;;;10.40;99.90;;;;;;4989378;28;20644;-91
2022/11/16 05:35:01;;;;;;;9.13;8.40;;;10.50;99.90;;;;;;4984889;28;20644;-89
2022/11/16 05:37:29;;;;;;;8.90;8.00;;;10.50;99.90;;;;;;4983252;28;20695;-89
2022/11/16 05:39:57;;;;;;;9.03;8.23;;;10.40;99.90;;;;;;4984771;28;20656;-89
2022/11/16 05:42:24;;;;;;;13.17;12.00;;;10.40;99.90;;;;;;4988755;28;20664;-90
2022/11/16 05:44:51;;;;;;;12.00;10.83;;;10.00;99.90;;;;;;4988150;28;20990;-89
2022/11/16 05:47:18;;;;;;;10.60;9.70;;;10.40;99.90;;;;;;4983168;28;21193;-89
2022/11/16 05:49:46;;;;;;;11.80;10.80;;;10.40;99.90;;;;;;4983946;28;21075;-88
2022/11/16 05:52:18;;;;;;;10.37;9.23;;;10.10;99.90;;;;;;4990720;28;20656;-90
2022/11/16 05:54:45;;;;;;;8.70;8.03;;;10.20;99.90;;;;;;4986108;28;20649;-90
2022/11/16 05:57:14;;;;;;;8.57;7.87;;;10.40;99.90;;;;;;4994005;28;21232;-89
2022/11/16 05:59:41;;;;;;;8.87;8.17;;;9.90;99.90;;;;;;4995726;28;20682;-89
2022/11/16 06:02:09;;;;;;;9.00;8.30;;;10.30;99.90;;;;;;4996520;28;20691;-89
2022/11/16 06:04:37;;;;;;;8.77;7.97;;;10.10;99.90;;;;;;4995267;28;21254;-90
2022/11/16 06:07:04;;;;;;;9.60;8.70;;;10.30;99.90;;;;;;4992979;28;20656;-89
2022/11/16 06:09:30;;;;;;;10.27;9.50;;;10.00;99.90;;;;;;4990109;28;20659;-89
2022/11/16 06:11:57;;;;;;;10.47;9.53;;;10.30;99.90;;;;;;4979091;28;21011;-89
2022/11/16 06:14:26;;;;;;;9.90;9.10;;;9.80;99.90;;;;;;4985634;28;21051;-90
2022/11/16 06:16:53;;;;;;;11.17;10.27;;;10.20;99.90;;;;;;4984899;28;20667;-89
2022/11/16 06:19:20;;;;;;;11.80;10.80;;;10.10;99.90;;;;;;4984188;28;20973;-90
2022/11/16 06:21:47;;;;;;;10.43;9.43;;;10.20;99.90;;;;;;4987040;28;20688;-89
2022/11/16 06:24:14;;;;;;;9.83;9.03;;;10.20;99.90;;;;;;4989339;28;21420;-89
2022/11/16 06:26:41;;;;;;;11.10;10.20;;;10.20;99.90;;;;;;4988187;28;20671;-89
2022/11/16 06:29:08;;;;;;;10.53;9.73;;;10.20;99.90;;;;;;4989205;28;20644;-90
2022/11/16 06:31:36;;;;;;;15.37;14.03;;;9.80;99.90;;;;;;4983184;28;20648;-89
2022/11/16 06:34:03;;;;;;;12.60;11.60;;;10.20;99.90;;;;;;4980948;28;20639;-89
2022/11/16 06:36:30;;;;;;;11.20;10.30;;;10.20;99.90;;;;;;4967613;28;20679;-88
2022/11/16 06:38:59;;;;;;;9.60;8.90;;;9.90;99.90;;;;;;4985260;28;20671;-88
2022/11/16 06:41:26;;;;;;;8.47;7.60;;;10.20;99.90;;;;;;4981567;28;20653;-87
2022/11/16 06:43:53;;;;;;;9.10;8.30;;;10.00;99.90;;;;;;4984558;28;20636;-88
2022/11/16 06:46:20;;;;;;;9.17;8.47;;;9.90;99.90;;;;;;4989373;28;21088;-87
2022/11/16 06:48:48;;;;;;;8.97;8.17;;;10.20;99.90;;;;;;4982178;28;20645;-90
2022/11/16 06:51:15;;;;;;;8.23;7.53;;;9.90;99.90;;;;;;4982615;28;20748;-89
2022/11/16 06:53:42;;;;;;;8.07;7.37;;;9.80;99.90;;;;;;4990239;28;20673;-88
2022/11/16 06:56:12;;;;;;;7.93;7.23;;;9.90;99.90;;;;;;4982034;28;20656;-87
2022/11/16 06:58:39;;;;;;;7.23;6.73;;;10.30;99.90;;;;;;4985454;28;21176;-89
2022/11/16 07:01:06;;;;;;;8.00;7.20;;;9.90;99.90;;;;;;4992703;28;20664;-88
2022/11/16 07:03:33;;;;;;;7.03;6.37;;;10.10;99.90;;;;;;4991871;28;20679;-88
2022/11/16 07:06:05;;;;;;;10.63;7.70;;;9.90;99.90;;;;;;4984974;28;20641;-89
2022/11/16 07:08:32;;;;;;;12.83;11.70;;;10.20;99.90;;;;;;4991335;28;20740;-88
2022/11/16 07:11:03;;;;;;;12.30;9.00;;;10.40;99.90;;;;;;4964712;28;20909;-88
2022/11/16 07:13:31;;;;;;;8.90;8.00;;;10.20;99.90;;;;;;4983918;28;20664;-88
2022/11/16 07:16:01;;;;;;;8.03;7.43;;;10.30;99.90;;;;;;4988185;28;20636;-88
2022/11/16 07:18:28;;;;;;;8.80;7.40;;;10.10;99.90;;;;;;4981368;28;20711;-89
2022/11/16 07:20:55;;;;;;;6.90;6.27;;;10.20;99.90;;;;;;4991057;28;20679;-88
2022/11/16 07:23:23;;;;;;;5.60;5.20;;;10.30;99.90;;;;;;4983786;28;20696;-88
2022/11/16 07:25:50;;;;;;;8.07;6.33;;;10.30;99.90;;;;;;4982950;28;20642;-88
2022/11/16 07:28:17;;;;;;;6.53;5.80;;;10.60;99.90;;;;;;4993850;28;20648;-89
2022/11/16 07:30:45;;;;;;;6.70;6.20;;;10.30;99.90;;;;;;4984221;28;20636;-89
2022/11/16 07:33:12;;;;;;;5.70;4.90;;;10.50;99.90;;;;;;4990996;28;20711;-88
2022/11/16 07:35:39;;;;;;;5.20;4.40;;;10.30;99.90;;;;;;4987563;28;20628;-89
2022/11/16 07:38:06;;;;;;;6.40;5.90;;;10.20;99.90;;;;;;4986260;28;20657;-89
2022/11/16 07:40:36;;;;;;;7.20;5.37;;;10.60;99.90;;;;;;4986653;28;20660;-89
2022/11/16 07:43:03;;;;;;;6.30;5.80;;;10.70;99.90;;;;;;4984472;28;20738;-89
2022/11/16 07:45:30;;;;;;;6.13;5.63;;;10.20;99.90;;;;;;4988665;28;20629;-89
2022/11/16 07:47:57;;;;;;;6.13;5.73;;;10.70;99.90;;;;;;4970204;28;20633;-88
2022/11/16 07:50:23;;;;;;;5.03;4.57;;;10.50;99.90;;;;;;4983915;28;20735;-89
2022/11/16 07:52:50;;;;;;;5.03;4.63;;;10.40;99.90;;;;;;4979207;28;20652;-89
2022/11/16 07:55:17;;;;;;;4.50;4.07;;;10.90;99.90;;;;;;4983979;28;20639;-89
2022/11/16 07:57:46;;;;;;;4.80;4.47;;;10.50;99.90;;;;;;4984308;28;21227;-89
2022/11/16 08:00:13;;;;;;;5.70;4.60;;;11.00;99.90;;;;;;4986017;28;21097;-89
2022/11/16 08:02:40;;;;;;;8.20;3.97;;;11.10;99.90;;;;;;4987837;28;20684;-89
2022/11/16 08:05:07;;;;;;;3.93;2.73;;;10.70;99.90;;;;;;4980259;28;20634;-89
2022/11/16 08:07:35;;;;;;;3.53;3.13;;;11.20;99.90;;;;;;4983895;28;20636;-89
2022/11/16 08:10:01;;;;;;;4.63;3.17;;;11.20;99.90;;;;;;4982895;28;21675;-89
2022/11/16 08:12:28;;;;;;;3.30;3.00;;;11.30;99.90;;;;;;4980354;28;21568;-89
2022/11/16 08:14:56;;;;;;;3.30;3.00;;;11.30;99.90;;;;;;4986347;28;21268;-88
2022/11/16 08:17:23;;;;;;;3.60;3.30;;;11.40;99.90;;;;;;4980383;28;21249;-89
2022/11/16 08:19:50;;;;;;;3.00;2.80;;;11.20;99.90;;;;;;4978301;28;20639;-88
2022/11/16 08:22:17;;;;;;;3.40;3.10;;;11.30;99.90;;;;;;4979544;28;20725;-89
2022/11/16 08:24:43;;;;;;;4.17;3.30;;;11.50;99.90;;;;;;4980868;28;20656;-89
2022/11/16 08:27:11;;;;;;;2.93;2.50;;;11.40;99.90;;;;;;4980286;28;20639;-88
2022/11/16 08:29:38;;;;;;;2.60;2.30;;;12.00;99.90;;;;;;4982147;28;20648;-89
2022/11/16 08:32:07;;;;;;;2.60;2.00;;;12.10;99.90;;;;;;4973551;28;20647;-89
2022/11/16 08:34:33;;;;;;;2.30;2.10;;;11.80;99.90;;;;;;4981881;28;21044;-89
2022/11/16 08:37:00;;;;;;;3.37;2.00;;;12.20;99.90;;;;;;4986509;28;21051;-89
2022/11/16 08:39:27;;;;;;;4.80;1.90;;;12.30;99.90;;;;;;4979450;28;21050;-88
2022/11/16 08:41:54;;;;;;;1.80;1.63;;;12.30;99.90;;;;;;4985056;28;20632;-88
2022/11/16 08:44:21;;;;;;;2.63;2.43;;;11.90;99.90;;;;;;4981959;28;20691;-88
2022/11/16 08:46:48;;;;;;;6.23;5.63;;;11.90;99.90;;;;;;4985766;28;20617;-88
2022/11/16 08:49:18;;;;;;;5.47;4.50;;;12.40;99.90;;;;;;4981118;28;20633;-88
2022/11/16 08:51:45;;;;;;;9.13;4.27;;;12.20;99.90;;;;;;4980135;28;20964;-89
2022/11/16 08:54:12;;;;;;;5.50;4.60;;;11.50;99.90;;;;;;4977454;28;20816;-90
2022/11/16 08:56:39;;;;;;;5.77;5.03;;;11.70;99.90;;;;;;4987422;28;20732;-89
2022/11/16 08:59:06;;;;;;;6.87;6.20;;;11.70;99.90;;;;;;4991824;28;20617;-89
2022/11/16 09:01:33;;;;;;;6.10;5.43;;;11.60;99.90;;;;;;4987690;28;20720;-89
2022/11/16 09:04:00;;;;;;;6.90;5.40;;;11.30;99.90;;;;;;4993404;28;20695;-88
2022/11/16 09:06:29;;;;;;;7.07;5.27;;;11.70;99.90;;;;;;4990021;28;20639;-89
2022/11/16 09:08:56;;;;;;;5.90;5.30;;;11.60;99.90;;;;;;4986888;28;20994;-89
2022/11/16 09:11:25;;;;;;;10.27;7.17;;;11.90;99.90;;;;;;4988943;28;20633;-88
2022/11/16 09:21:31;;;;;;;5.30;4.27;;;12.20;99.90;;;;;;4990536;28;20683;-89
2022/11/16 09:24:03;;;;;;;2.63;2.43;;;12.60;99.90;;;;;;4993392;28;21140;-89
2022/11/16 09:26:31;;;;;;;4.87;3.27;;;12.50;99.90;;;;;;4981211;28;20635;-89
2022/11/16 09:29:01;;;;;;;3.37;2.70;;;12.40;99.90;;;;;;4987322;28;20636;-89
2022/11/16 09:31:31;;;;;;;5.17;2.83;;;12.40;99.90;;;;;;4983187;28;20656;-88
2022/11/16 09:33:59;;;;;;;15.30;13.63;;;12.70;99.90;;;;;;4986043;28;20640;-89
2022/11/16 09:36:27;;;;;;;3.07;2.80;;;13.10;99.90;;;;;;4987817;28;20630;-89
2022/11/16 09:38:54;;;;;;;46.60;36.50;;;13.70;99.90;;;;;;4985716;28;20644;-89
2022/11/16 09:45:03;;;;;;;11.93;5.23;;;14.90;99.90;;;;;;4994875;28;20671;-89
2022/11/16 09:47:40;;;;;;;2.53;2.33;;;15.50;99.90;;;;;;5003424;28;20635;-90
2022/11/16 09:50:16;;;;;;;3.80;2.73;;;15.30;99.90;;;;;;4992638;28;20655;-90
2022/11/16 09:52:46;;;;;;;2.90;2.53;;;15.40;99.90;;;;;;4987661;28;21228;-90
2022/11/16 09:55:24;;;;;;;3.07;2.30;;;14.70;99.90;;;;;;4989310;28;20621;-90
2022/11/16 09:57:55;;;;;;;3.33;2.23;;;14.30;99.90;;;;;;4990516;28;20654;-89
2022/11/16 10:00:24;;;;;;;2.43;2.23;;;14.00;99.90;;;;;;4988557;28;20653;-90
2022/11/16 10:02:59;;;;;;;2.30;2.20;;;13.50;99.90;;;;;;4995796;28;20796;-89
2022/11/16 10:05:31;;;;;;;3.07;2.70;;;13.10;99.90;;;;;;4982069;28;20653;-90
2022/11/16 10:08:04;;;;;;;3.20;2.50;;;13.00;99.90;;;;;;4978294;28;20687;-89
2022/11/16 10:10:38;;;;;;;2.87;2.57;;;13.00;99.90;;;;;;4982273;28;20990;-88
2022/11/16 10:13:19;;;;;;;3.00;2.70;;;12.90;99.90;;;;;;4983717;28;20644;-88
2022/11/16 10:16:01;;;;;;;3.40;2.83;;;12.70;99.90;;;;;;4981743;28;20660;-88
2022/11/16 10:18:44;;;;;;;2.93;2.63;;;12.90;99.90;;;;;;4984042;28;20628;-89
2022/11/16 10:21:26;;;;;;;2.33;1.93;;;13.30;99.90;;;;;;4963224;28;20637;-89
2022/11/16 10:24:20;;;;;;;4.00;1.60;;;13.60;99.90;;;;;;4987026;28;20683;-88
2022/11/16 10:26:54;;;;;;;6.03;1.30;;;13.80;99.90;;;;;;4981427;28;20627;-88
2022/11/16 10:29:35;;;;;;;2.60;1.60;;;13.80;99.90;;;;;;4980693;28;20632;-89
2022/11/16 10:32:13;;;;;;;2.53;1.50;;;13.10;99.90;;;;;;4978260;28;20633;-90
2022/11/16 10:34:50;;;;;;;3.43;1.30;;;12.80;99.90;;;;;;4983805;28;20647;-89
2022/11/16 10:37:17;;;;;;;1.87;1.63;;;12.80;99.90;;;;;;4977982;28;20731;-88
2022/11/16 10:39:46;;;;;;;1.43;1.30;;;12.90;99.90;;;;;;4983373;28;20649;-89
2022/11/16 10:42:19;;;;;;;1.70;1.60;;;12.40;99.90;;;;;;4980949;28;20690;-89
2022/11/16 10:44:52;;;;;;;3.43;1.80;;;13.10;99.90;;;;;;4981406;28;20776;-89
2022/11/16 10:47:24;;;;;;;4.30;1.90;;;12.90;99.90;;;;;;4988230;28;20629;-89
2022/11/16 10:49:58;;;;;;;2.90;2.40;;;12.80;99.90;;;;;;4981921;28;20997;-90
2022/11/16 10:52:25;;;;;;;3.10;2.40;;;12.80;99.90;;;;;;4979389;28;20632;-89
2022/11/16 10:54:52;;;;;;;2.57;2.10;;;12.60;99.90;;;;;;4978134;28;20724;-89
2022/11/16 10:57:22;;;;;;;3.57;2.70;;;12.40;99.90;;;;;;4985529;28;20648;-89
2022/11/16 10:59:52;;;;;;;8.37;2.50;;;12.70;99.90;;;;;;4978117;28;20644;-89
2022/11/16 11:02:30;;;;;;;3.67;2.60;;;12.70;99.90;;;;;;4983238;28;20624;-89
2022/11/16 11:05:16;;;;;;;3.63;2.30;;;12.90;99.90;;;;;;4981716;28;20711;-88
2022/11/16 11:07:49;;;;;;;1.83;1.73;;;13.10;99.90;;;;;;4982954;28;20632;-89
2022/11/16 11:10:30;;;;;;;2.73;1.70;;;13.00;99.90;;;;;;4991939;28;20636;-89
2022/11/16 11:13:07;;;;;;;1.80;1.70;;;12.80;99.90;;;;;;4992002;28;20632;-89
2022/11/16 11:15:34;;;;;;;1.93;1.73;;;14.90;99.90;;;;;;4991577;28;20695;-90
2022/11/16 11:18:17;;;;;;;1.60;1.50;;;17.60;99.90;;;;;;4988527;28;20632;-89
2022/11/16 11:20:47;;;;;;;2.00;1.90;;;19.20;99.90;;;;;;4989957;28;20633;-90
2022/11/16 11:23:16;;;;;;;2.10;1.90;;;21.30;99.90;;;;;;4995327;28;20672;-88
2022/11/16 11:25:51;;;;;;;2.13;1.80;;;23.30;98.40;;;;;;4979855;28;20788;-87
2022/11/16 11:28:21;;;;;;;1.93;1.83;;;23.80;92.10;;;;;;4985343;28;20642;-88
2022/11/16 11:30:58;;;;;;;2.50;2.30;;;22.10;96.00;;;;;;4987520;28;20633;-88
2022/11/16 11:33:29;;;;;;;3.23;2.10;;;19.20;99.90;;;;;;4979392;28;20993;-90
2022/11/16 11:36:04;;;;;;;3.30;2.80;;;18.80;99.90;;;;;;4994436;28;21012;-91
2022/11/16 11:38:32;;;;;;;2.70;2.50;;;18.60;99.90;;;;;;4979403;28;21006;-89
2022/11/16 11:41:00;;;;;;;1.70;1.50;;;19.10;99.90;;;;;;4987706;28;20663;-89
2022/11/16 11:43:28;;;;;;;3.13;1.67;;;17.50;99.90;;;;;;4969419;28;20793;-89
2022/11/16 11:46:03;;;;;;;4.13;3.00;;;16.20;99.90;;;;;;4987728;28;20635;-89
2022/11/16 11:48:41;;;;;;;2.23;1.80;;;15.70;99.90;;;;;;4984824;28;20655;-89
2022/11/16 11:51:13;;;;;;;1.70;1.60;;;16.20;99.90;;;;;;4988185;28;20626;-89
2022/11/16 11:53:52;;;;;;;2.90;1.90;;;18.00;99.90;;;;;;4982913;28;20798;-89
2022/11/16 11:56:19;;;;;;;4.67;2.97;;;18.00;99.90;;;;;;4974517;28;20728;-89
2022/11/16 11:58:48;;;;;;;7.87;7.17;;;18.40;99.90;;;;;;4983506;28;20661;-90
2022/11/16 12:01:45;;;;;;;12.20;10.90;;;19.80;99.90;;;;;;4979606;28;20738;-90
2022/11/16 12:07:18;;;;;;;1.47;1.10;;;20.30;99.90;;;;;;5093143;27;20823;-88
2022/11/16 12:09:55;;;;;;;2.40;1.03;;;19.50;93.40;;;;;;5061159;28;20664;-90
2022/11/16 12:12:47;;;;;;;18.43;13.70;;;19.10;94.10;;;;;;5065627;28;20674;-89
2022/11/16 12:15:55;;;;;;;3.73;2.80;;;17.90;95.30;;;;;;5064244;28;20673;-89
2022/11/16 12:18:35;;;;;;;1.63;1.53;;;17.20;99.90;;;;;;5067491;28;20625;-88
2022/11/16 12:21:12;;;;;;;1.80;0.90;;;16.60;99.90;;;;;;5072681;28;20617;-89
2022/11/16 12:23:55;;;;;;;1.17;0.90;;;16.80;99.90;;;;;;5066374;28;21404;-88
2022/11/16 12:26:29;;;;;;;1.10;1.00;;;17.70;98.50;;;;;;5063535;28;20814;-88
2022/11/16 12:29:11;;;;;;;3.63;2.93;;;19.30;91.90;;;;;;5067402;28;20638;-88
2022/11/16 12:31:57;;;;;;;2.80;2.60;;;18.40;92.40;;;;;;5073094;28;20631;-90
2022/11/16 12:34:39;;;;;;;2.20;1.17;;;17.90;92.90;;;;;;5069468;28;20702;-89
2022/11/16 12:37:14;;;;;;;4.13;0.90;;;18.10;94.60;;;;;;5071931;28;20663;-87
2022/11/16 12:39:46;;;;;;;2.60;0.90;;;17.90;93.70;;;;;;5068858;28;20767;-89
2022/11/16 12:42:23;;;;;;;2.13;1.10;;;19.50;92.50;;;;;;5066070;28;20656;-90
2022/11/16 12:45:21;;;;;;;3.07;0.80;;;20.60;87.10;;;;;;5063861;28;20706;-90
2022/11/16 12:48:15;;;;;;;1.50;0.90;;;21.60;75.80;;;;;;5066621;28;20645;-90
2022/11/16 12:50:51;;;;;;;1.13;0.87;;;21.70;74.10;;;;;;5066891;28;20632;-89
2022/11/16 12:53:43;;;;;;;2.63;0.50;;;22.50;66.40;;;;;;5067886;28;20644;-89
2022/11/16 12:56:23;;;;;;;1.57;0.80;;;22.00;63.60;;;;;;5065125;28;20650;-89
2022/11/16 12:59:05;;;;;;;0.87;0.60;;;21.40;62.30;;;;;;5073690;28;20986;-88
2022/11/16 13:01:36;;;;;;;2.57;0.90;;;19.90;68.00;;;;;;5071002;28;20632;-89
2022/11/16 13:04:08;;;;;;;0.70;0.60;;;22.10;64.70;;;;;;5070080;28;20621;-89
2022/11/16 13:06:39;;;;;;;1.27;0.77;;;21.00;65.10;;;;;;5061984;28;20682;-89
2022/11/16 13:09:11;;;;;;;1.13;0.67;;;20.80;63.90;;;;;;5069321;28;20738;-89
2022/11/16 13:11:43;;;;;;;2.37;0.70;;;21.80;65.10;;;;;;5065537;28;20625;-88
2022/11/16 13:14:17;;;;;;;2.00;1.10;;;22.40;62.50;;;;;;5072147;28;20611;-88
2022/11/16 13:16:44;;;;;;;1.00;0.60;;;22.60;62.70;;;;;;5063226;28;20995;-87
2022/11/16 13:19:14;;;;;;;1.23;0.60;;;22.70;58.50;;;;;;5058666;28;20625;-89
2022/11/16 13:21:49;;;;;;;3.13;1.17;;;21.80;60.70;;;;;;5052293;28;20630;-89
2022/11/16 13:24:40;;;;;;;1.40;0.60;;;22.20;58.90;;;;;;5049850;28;20902;-89
2022/11/16 13:27:20;;;;;;;1.77;0.67;;;22.90;59.30;;;;;;5056744;28;20665;-89
2022/11/16 13:29:55;;;;;;;1.23;0.67;;;22.90;59.00;;;;;;5050867;28;20626;-88
2022/11/16 13:32:34;;;;;;;2.20;0.80;;;22.00;58.90;;;;;;5049195;28;20637;-89
2022/11/16 13:35:15;;;;;;;2.57;1.00;;;23.00;57.70;;;;;;5058658;28;20648;-89
2022/11/16 13:37:44;;;;;;;2.60;0.83;;;22.80;57.80;;;;;;5063779;28;21324;-90
2022/11/16 13:40:27;;;;;;;2.30;0.80;;;22.20;58.10;;;;;;5053386;28;20650;-89
2022/11/16 13:43:16;;;;;;;1.20;0.77;;;22.10;58.50;;;;;;5060635;28;20649;-89
2022/11/16 13:45:51;;;;;;;1.80;0.80;;;22.10;58.70;;;;;;5055303;28;20687;-89
2022/11/16 13:48:21;;;;;;;2.40;0.70;;;21.80;57.80;;;;;;5053631;28;20636;-89
2022/11/16 13:50:51;;;;;;;4.30;0.90;;;20.70;59.80;;;;;;5054421;28;21129;-89
2022/11/16 13:53:25;;;;;;;2.60;0.93;;;20.00;63.20;;;;;;5043921;28;21172;-89
2022/11/16 13:55:57;;;;;;;1.27;0.63;;;19.40;66.00;;;;;;5047295;28;21375;-88
2022/11/16 13:58:29;;;;;;;3.37;0.73;;;18.00;73.30;;;;;;5055049;28;21134;-88
2022/11/16 14:01:00;;;;;;;2.13;1.00;;;17.00;77.80;;;;;;5052720;28;20993;-88